createdAt,value
2022-12-18T00:02:04.812Z,-3.76
2022-12-18T00:04:22.631Z,-3.76
2022-12-18T00:06:36.305Z,-3.78
2022-12-18T00:08:49.143Z,-3.84
2022-12-18T00:11:08.926Z,-3.91
2022-12-18T00:13:20.818Z,-3.96
2022-12-18T00:15:35.475Z,-3.99
2022-12-18T00:17:47.569Z,-4.03
2022-12-18T00:19:59.258Z,-4.06
2022-12-18T00:22:11.146Z,-4.11
2022-12-18T00:24:23.141Z,-4.13
2022-12-18T00:26:37.187Z,-4.15
2022-12-18T00:28:49.587Z,-4.16
2022-12-18T00:31:02.808Z,-4.19
2022-12-18T00:33:14.909Z,-4.20
2022-12-18T00:35:26.701Z,-4.20
2022-12-18T00:37:38.794Z,-4.20
2022-12-18T00:39:52.939Z,-4.22
2022-12-18T00:42:24.293Z,-4.22
2022-12-18T00:44:37.828Z,-4.23
2022-12-18T00:46:50.739Z,-4.26
2022-12-18T00:49:03.861Z,-4.29
2022-12-18T00:51:16.057Z,-4.35
2022-12-18T00:53:27.845Z,-4.36
2022-12-18T00:55:42.707Z,-4.36
2022-12-18T00:57:54.498Z,-4.37
2022-12-18T01:00:08.434Z,-4.36
2022-12-18T01:02:20.704Z,-4.33
2022-12-18T01:04:33.710Z,-4.32
2022-12-18T01:06:45.753Z,-4.30
2022-12-18T01:08:57.645Z,-4.27
2022-12-18T01:11:14.249Z,-4.25
2022-12-18T01:13:26.756Z,-4.28
2022-12-18T01:15:38.752Z,-4.30
2022-12-18T01:17:53.611Z,-4.30
2022-12-18T01:20:06.733Z,-4.34
2022-12-18T01:22:18.425Z,-4.37
2022-12-18T01:24:30.824Z,-4.40
2022-12-18T01:26:42.865Z,-4.41
2022-12-18T01:28:56.247Z,-4.43
2022-12-18T01:31:20.443Z,-4.45
2022-12-18T01:33:32.525Z,-4.51
2022-12-18T01:35:45.136Z,-4.56
2022-12-18T01:37:57.546Z,-4.62
2022-12-18T01:40:09.954Z,-4.65
2022-12-18T01:42:22.348Z,-4.68
2022-12-18T01:44:56.872Z,-4.70
2022-12-18T01:47:08.762Z,-4.69
2022-12-18T01:49:20.654Z,-4.69
2022-12-18T01:51:32.546Z,-4.66
2022-12-18T01:53:46.282Z,-4.67
2022-12-18T01:55:59.916Z,-4.72
2022-12-18T01:58:12.423Z,-4.76
2022-12-18T02:00:25.029Z,-4.82
2022-12-18T02:02:37.197Z,-4.83
2022-12-18T02:04:49.691Z,-4.88
2022-12-18T02:07:27.435Z,-4.93
2022-12-18T02:10:15.372Z,-4.98
2022-12-18T02:12:46.412Z,-5.04
2022-12-18T02:15:07.724Z,-5.09
2022-12-18T02:17:33.340Z,-5.13
2022-12-18T02:19:54.304Z,-5.20
2022-12-18T02:22:38.700Z,-5.25
2022-12-18T02:25:01.243Z,-5.28
2022-12-18T02:27:14.405Z,-5.28
2022-12-18T02:29:37.108Z,-5.34
2022-12-18T02:32:00.469Z,-5.35
2022-12-18T02:34:14.723Z,-5.38
2022-12-18T02:36:29.974Z,-5.40
2022-12-18T02:38:45.670Z,-5.42
2022-12-18T02:40:59.550Z,-5.44
2022-12-18T02:43:15.289Z,-5.46
2022-12-18T02:45:27.342Z,-5.52
2022-12-18T02:47:44.913Z,-5.55
2022-12-18T02:49:57.725Z,-5.56
2022-12-18T02:52:25.594Z,-5.60
2022-12-18T02:54:48.783Z,-5.65
2022-12-18T02:57:16.207Z,-5.71
2022-12-18T02:59:50.524Z,-5.82
2022-12-18T03:02:15.360Z,-5.93
2022-12-18T03:04:50.742Z,-5.99
2022-12-18T03:07:09.000Z,-6.09
2022-12-18T03:09:28.986Z,-6.09
2022-12-18T03:12:03.718Z,-6.12
2022-12-18T03:14:21.125Z,-6.14
2022-12-18T03:16:36.041Z,-6.13
2022-12-18T03:18:55.060Z,-6.16
2022-12-18T03:21:07.771Z,-6.15
2022-12-18T03:23:37.417Z,-6.15
2022-12-18T03:25:50.805Z,-6.13
2022-12-18T03:28:07.103Z,-6.09
2022-12-18T03:30:19.662Z,-6.06
2022-12-18T03:32:37.235Z,-6.06
2022-12-18T03:34:53.009Z,-6.04
2022-12-18T03:37:07.267Z,-6.01
2022-12-18T03:39:21.002Z,-6.01
2022-12-18T03:42:00.544Z,-5.98
2022-12-18T03:44:31.481Z,-5.97
2022-12-18T03:46:56.073Z,-5.96
2022-12-18T03:49:24.042Z,-5.97
2022-12-18T03:51:44.860Z,-6.00
2022-12-18T03:54:03.688Z,-6.07
2022-12-18T03:56:18.969Z,-6.17
2022-12-18T03:58:34.548Z,-6.18
2022-12-18T04:01:02.322Z,-6.16
2022-12-18T04:03:15.894Z,-6.15
2022-12-18T04:05:34.937Z,-6.12
2022-12-18T04:07:49.659Z,-6.09
2022-12-18T04:10:04.369Z,-6.08
2022-12-18T04:12:16.518Z,-6.09
2022-12-18T04:14:29.537Z,-6.12
2022-12-18T04:16:41.641Z,-6.18
2022-12-18T04:18:55.677Z,-6.20
2022-12-18T04:21:09.415Z,-6.26
2022-12-18T04:23:22.329Z,-6.29
2022-12-18T04:25:35.142Z,-6.31
2022-12-18T04:27:56.355Z,-6.37
2022-12-18T04:30:09.276Z,-6.42
2022-12-18T04:32:21.469Z,-6.46
2022-12-18T04:34:33.978Z,-6.49
2022-12-18T04:36:45.662Z,-6.53
2022-12-18T04:38:58.785Z,-6.55
2022-12-18T04:41:11.086Z,-6.53
2022-12-18T04:43:25.888Z,-6.51
2022-12-18T04:45:37.842Z,-6.49
2022-12-18T04:47:49.733Z,-6.47
2022-12-18T04:50:01.728Z,-6.51
2022-12-18T04:52:13.518Z,-6.52
2022-12-18T04:54:25.102Z,-6.51
2022-12-18T04:56:37.097Z,-6.51
2022-12-18T04:58:49.060Z,-6.54
2022-12-18T05:01:01.189Z,-6.51
2022-12-18T05:03:13.128Z,-6.50
2022-12-18T05:05:25.179Z,-6.53
2022-12-18T05:07:37.685Z,-6.54
2022-12-18T05:09:49.374Z,-6.57
2022-12-18T05:12:01.572Z,-6.61
2022-12-18T05:14:13.670Z,-6.62
2022-12-18T05:16:25.537Z,-6.59
2022-12-18T05:18:37.765Z,-6.55
2022-12-18T05:20:51.117Z,-6.57
2022-12-18T05:23:02.875Z,-6.55
2022-12-18T05:25:14.669Z,-6.54
2022-12-18T05:27:26.456Z,-6.56
2022-12-18T05:29:38.962Z,-6.54
2022-12-18T05:31:51.109Z,-6.55
2022-12-18T05:34:03.574Z,-6.63
2022-12-18T05:36:15.870Z,-6.64
2022-12-18T05:38:30.045Z,-6.62
2022-12-18T05:40:44.610Z,-6.59
2022-12-18T05:42:56.359Z,-6.55
2022-12-18T05:45:09.070Z,-6.54
2022-12-18T05:47:21.372Z,-6.58
2022-12-18T05:49:32.956Z,-6.64
2022-12-18T05:51:44.848Z,-6.67
2022-12-18T05:53:56.617Z,-6.66
2022-12-18T05:56:11.440Z,-6.65
2022-12-18T05:58:23.123Z,-6.64
2022-12-18T06:00:37.180Z,-6.62
2022-12-18T06:02:49.080Z,-6.64
2022-12-18T06:05:01.430Z,-6.65
2022-12-18T06:07:13.214Z,-6.71
2022-12-18T06:09:24.801Z,-6.74
2022-12-18T06:11:37.920Z,-6.71
2022-12-18T06:13:58.287Z,-6.67
2022-12-18T06:16:11.697Z,-6.61
2022-12-18T06:18:23.636Z,-6.56
2022-12-18T06:20:37.678Z,-6.51
2022-12-18T06:22:49.268Z,-6.48
2022-12-18T06:25:02.074Z,-6.43
2022-12-18T06:27:14.683Z,-6.43
2022-12-18T06:29:26.272Z,-6.47
2022-12-18T06:31:38.643Z,-6.49
2022-12-18T06:33:50.363Z,-6.51
2022-12-18T06:36:13.618Z,-6.51
2022-12-18T06:38:25.616Z,-6.49
2022-12-18T06:40:39.678Z,-6.49
2022-12-18T06:42:51.550Z,-6.47
2022-12-18T06:45:03.793Z,-6.44
2022-12-18T06:47:15.640Z,-6.45
2022-12-18T06:49:30.471Z,-6.43
2022-12-18T06:51:43.008Z,-6.42
2022-12-18T06:53:54.911Z,-6.44
2022-12-18T06:56:10.643Z,-6.43
2022-12-18T06:58:22.626Z,-6.40
2022-12-18T07:00:34.207Z,-6.36
2022-12-18T07:02:46.127Z,-6.32
2022-12-18T07:04:58.079Z,-6.33
2022-12-18T07:07:10.145Z,-6.33
2022-12-18T07:09:21.939Z,-6.30
2022-12-18T07:11:34.752Z,-6.31
2022-12-18T07:13:47.054Z,-6.30
2022-12-18T07:16:10.901Z,-6.29
2022-12-18T07:18:27.323Z,-6.25
2022-12-18T07:20:39.112Z,-6.24
2022-12-18T07:22:56.043Z,-6.28
2022-12-18T07:25:08.633Z,-6.31
2022-12-18T07:27:20.422Z,-6.36
2022-12-18T07:29:32.008Z,-6.41
2022-12-18T07:31:44.060Z,-6.40
2022-12-18T07:33:56.406Z,-6.38
2022-12-18T07:36:10.576Z,-6.38
2022-12-18T07:38:23.263Z,-6.39
2022-12-18T07:40:35.084Z,-6.37
2022-12-18T07:42:46.947Z,-6.32
2022-12-18T07:45:03.052Z,-6.30
2022-12-18T07:47:15.031Z,-6.29
2022-12-18T07:49:26.822Z,-6.28
2022-12-18T07:51:38.506Z,-6.29
2022-12-18T07:53:52.454Z,-6.31
2022-12-18T07:58:40.297Z,-6.27
2022-12-18T08:00:53.382Z,-6.27
2022-12-18T08:03:05.468Z,-6.26
2022-12-18T08:05:18.532Z,-6.27
2022-12-18T08:07:30.528Z,-6.26
2022-12-18T08:09:43.241Z,-6.27
2022-12-18T08:11:55.337Z,-6.27
2022-12-18T08:14:07.024Z,-6.25
2022-12-18T08:16:19.399Z,-6.22
2022-12-18T08:18:36.953Z,-6.23
2022-12-18T08:20:49.050Z,-6.26
2022-12-18T08:23:00.840Z,-6.25
2022-12-18T08:25:12.631Z,-6.21
2022-12-18T08:27:31.462Z,-6.17
2022-12-18T08:29:43.480Z,-6.15
2022-12-18T08:31:55.495Z,-6.11
2022-12-18T08:34:07.367Z,-6.09
2022-12-18T08:36:20.282Z,-6.08
2022-12-18T08:38:33.711Z,-6.06
2022-12-18T08:40:45.398Z,-6.04
2022-12-18T08:43:15.927Z,-6.01
2022-12-18T08:45:28.538Z,-5.94
2022-12-18T08:47:40.227Z,-5.87
2022-12-18T08:49:51.914Z,-5.84
2022-12-18T08:52:04.119Z,-5.83
2022-12-18T08:54:16.209Z,-5.85
2022-12-18T08:56:28.102Z,-5.85
2022-12-18T08:58:40.035Z,-5.81
2022-12-18T09:00:51.753Z,-5.81
2022-12-18T09:03:04.085Z,-5.84
2022-12-18T09:05:16.393Z,-5.86
2022-12-18T09:07:28.076Z,-5.87
2022-12-18T09:09:39.942Z,-5.89
2022-12-18T09:11:51.656Z,-5.86
2022-12-18T09:14:03.752Z,-5.81
2022-12-18T09:16:17.118Z,-5.77
2022-12-18T09:18:29.276Z,-5.74
2022-12-18T09:20:41.577Z,-5.71
2022-12-18T09:22:53.472Z,-5.65
2022-12-18T09:25:08.538Z,-5.61
2022-12-18T09:27:20.432Z,-5.56
2022-12-18T09:29:33.244Z,-5.51
2022-12-18T09:31:45.054Z,-5.48
2022-12-18T09:33:57.851Z,-5.51
2022-12-18T09:36:12.401Z,-5.50
2022-12-18T09:38:24.498Z,-5.48
2022-12-18T09:40:42.948Z,-5.46
2022-12-18T09:43:00.461Z,-5.43
2022-12-18T09:45:16.333Z,-5.43
2022-12-18T09:47:39.502Z,-5.40
2022-12-18T09:49:59.185Z,-5.33
2022-12-18T09:52:17.429Z,-5.27
2022-12-18T09:54:34.752Z,-5.22
2022-12-18T09:56:46.433Z,-5.18
2022-12-18T09:59:03.035Z,-5.15
2022-12-18T10:01:28.982Z,-5.08
2022-12-18T10:03:48.514Z,-5.04
2022-12-18T10:06:24.896Z,-5.06
2022-12-18T10:08:55.739Z,-5.07
2022-12-18T10:11:29.333Z,-5.07
2022-12-18T10:13:59.248Z,-5.05
2022-12-18T10:16:44.627Z,-5.03
2022-12-18T10:19:19.046Z,-4.97
2022-12-18T10:22:01.454Z,-4.92
2022-12-18T10:24:31.266Z,-4.90
2022-12-18T10:26:45.221Z,-4.86
2022-12-18T10:29:03.691Z,-4.81
2022-12-18T10:31:20.239Z,-4.77
2022-12-18T10:33:34.095Z,-4.75
2022-12-18T10:35:48.135Z,-4.73
2022-12-18T10:38:21.737Z,-4.70
2022-12-18T10:40:48.685Z,-4.69
2022-12-18T10:43:13.475Z,-4.64
2022-12-18T10:45:25.061Z,-4.59
2022-12-18T10:47:37.979Z,-4.54
2022-12-18T10:49:53.975Z,-4.49
2022-12-18T10:52:17.227Z,-4.47
2022-12-18T10:54:36.247Z,-4.41
2022-12-18T10:56:48.384Z,-4.37
2022-12-18T10:59:05.130Z,-4.32
2022-12-18T11:01:22.554Z,-4.28
2022-12-18T11:03:40.119Z,-4.23
2022-12-18T11:06:03.922Z,-4.23
2022-12-18T11:08:24.440Z,-4.25
2022-12-18T11:10:41.872Z,-4.23
2022-12-18T11:12:53.931Z,-4.21
2022-12-18T11:15:06.705Z,-4.19
2022-12-18T11:17:27.049Z,-4.20
2022-12-18T11:19:42.097Z,-4.18
2022-12-18T11:21:53.821Z,-4.16
2022-12-18T11:24:10.073Z,-4.18
2022-12-18T11:26:22.919Z,-4.17
2022-12-18T11:28:43.319Z,-4.13
2022-12-18T11:31:35.289Z,-4.09
2022-12-18T11:34:28.750Z,-4.07
2022-12-18T11:36:47.536Z,-4.05
2022-12-18T11:39:07.136Z,-4.03
2022-12-18T11:41:48.999Z,-4.04
2022-12-18T11:44:03.757Z,-4.04
2022-12-18T11:46:26.340Z,-4.01
2022-12-18T11:48:44.849Z,-4.00
2022-12-18T11:50:59.814Z,-4.00
2022-12-18T11:53:13.203Z,-4.01
2022-12-18T11:55:41.110Z,-3.99
2022-12-18T11:58:07.851Z,-3.97
2022-12-18T12:00:31.897Z,-3.99
2022-12-18T12:03:05.100Z,-3.97
2022-12-18T12:05:34.834Z,-3.96
2022-12-18T12:08:19.798Z,-3.95
2022-12-18T12:10:54.017Z,-3.95
2022-12-18T12:13:19.933Z,-3.94
2022-12-18T12:15:43.090Z,-3.87
2022-12-18T12:18:18.278Z,-3.84
2022-12-18T12:20:59.204Z,-3.84
2022-12-18T12:23:48.596Z,-3.83
2022-12-18T12:26:07.845Z,-3.84
2022-12-18T12:28:39.218Z,-3.85
2022-12-18T12:31:21.626Z,-3.84
2022-12-18T12:33:45.672Z,-3.83
2022-12-18T12:36:04.426Z,-3.83
2022-12-18T12:38:25.469Z,-3.82
2022-12-18T12:41:00.485Z,-3.82
2022-12-18T12:43:35.053Z,-3.80
2022-12-18T12:46:01.435Z,-3.77
2022-12-18T12:48:37.152Z,-3.78
2022-12-18T12:50:51.281Z,-3.78
2022-12-18T12:53:09.132Z,-3.80
2022-12-18T12:55:25.379Z,-3.80
2022-12-18T12:57:54.028Z,-3.81
2022-12-18T13:00:18.124Z,-3.83
2022-12-18T13:02:43.416Z,-3.86
2022-12-18T13:05:21.684Z,-3.88
2022-12-18T13:07:41.154Z,-3.92
2022-12-18T13:10:26.805Z,-3.97
2022-12-18T13:13:01.127Z,-4.00
2022-12-18T13:15:23.136Z,-4.02
2022-12-18T13:17:35.951Z,-4.07
2022-12-18T13:20:08.299Z,-4.13
2022-12-18T13:22:29.354Z,-4.18
2022-12-18T13:24:42.244Z,-4.21
2022-12-18T13:26:55.679Z,-4.25
2022-12-18T13:29:07.963Z,-4.31
2022-12-18T13:31:42.285Z,-4.37
2022-12-18T13:34:27.892Z,-4.39
2022-12-18T13:36:42.025Z,-4.40
2022-12-18T13:39:19.768Z,-4.38
2022-12-18T13:41:36.531Z,-4.36
2022-12-18T13:43:53.699Z,-4.33
2022-12-18T13:46:22.415Z,-4.31
2022-12-18T13:48:39.370Z,-4.32
2022-12-18T13:51:08.024Z,-4.31
2022-12-18T13:53:32.309Z,-4.30
2022-12-18T13:55:46.592Z,-4.31
2022-12-18T13:58:06.971Z,-4.34
2022-12-18T14:00:20.076Z,-4.33
2022-12-18T14:02:34.275Z,-4.34
2022-12-18T14:04:48.326Z,-4.36
2022-12-18T14:07:07.161Z,-4.37
2022-12-18T14:09:28.248Z,-4.36
2022-12-18T14:11:47.030Z,-4.37
2022-12-18T14:14:02.983Z,-4.39
2022-12-18T14:16:18.120Z,-4.39
2022-12-18T14:18:53.510Z,-4.42
2022-12-18T14:21:08.041Z,-4.48
2022-12-18T14:23:41.724Z,-4.50
2022-12-18T14:25:54.662Z,-4.55
2022-12-18T14:28:14.728Z,-4.59
2022-12-18T14:30:33.829Z,-4.64
2022-12-18T14:33:01.215Z,-4.67
2022-12-18T14:35:14.767Z,-4.71
2022-12-18T14:37:28.501Z,-4.74
2022-12-18T14:39:40.087Z,-4.75
2022-12-18T14:41:53.106Z,-4.78
2022-12-18T14:44:09.802Z,-4.77
2022-12-18T14:46:44.266Z,-4.75
2022-12-18T14:48:58.434Z,-4.77
2022-12-18T14:51:14.085Z,-4.78
2022-12-18T14:53:57.638Z,-4.79
2022-12-18T14:56:29.800Z,-4.81
2022-12-18T14:58:50.493Z,-4.82
2022-12-18T15:01:03.013Z,-4.82
2022-12-18T15:03:22.086Z,-4.83
2022-12-18T15:05:35.910Z,-4.85
2022-12-18T15:07:49.340Z,-4.85
2022-12-18T15:10:12.986Z,-4.85
2022-12-18T15:12:35.405Z,-4.85
2022-12-18T15:14:48.239Z,-4.87
2022-12-18T15:17:30.977Z,-4.88
2022-12-18T15:20:04.657Z,-4.90
2022-12-18T15:22:21.542Z,-4.92
2022-12-18T15:24:34.355Z,-4.97
2022-12-18T15:26:46.452Z,-4.99
2022-12-18T15:29:01.344Z,-5.01
2022-12-18T15:31:13.479Z,-5.02
2022-12-18T15:33:30.887Z,-5.04
2022-12-18T15:35:46.841Z,-5.07
2022-12-18T15:37:59.538Z,-5.07
2022-12-18T15:40:20.336Z,-5.07
2022-12-18T15:42:50.968Z,-5.07
2022-12-18T15:45:02.859Z,-5.09
2022-12-18T15:47:14.837Z,-5.12
2022-12-18T15:49:27.052Z,-5.17
2022-12-18T15:51:39.971Z,-5.20
2022-12-18T15:53:55.689Z,-5.23
2022-12-18T15:56:33.586Z,-5.22
2022-12-18T15:58:46.066Z,-5.22
2022-12-18T16:01:02.953Z,-5.23
2022-12-18T16:03:17.455Z,-5.24
2022-12-18T16:05:33.365Z,-5.25
2022-12-18T16:07:52.131Z,-5.30
2022-12-18T16:10:10.032Z,-5.33
2022-12-18T16:12:26.802Z,-5.38
2022-12-18T16:14:38.283Z,-5.43
2022-12-18T16:16:56.525Z,-5.48
2022-12-18T16:19:08.828Z,-5.51
2022-12-18T16:21:20.774Z,-5.55
2022-12-18T16:23:33.876Z,-5.57
2022-12-18T16:25:49.412Z,-5.56
2022-12-18T16:28:02.336Z,-5.56
2022-12-18T16:30:21.625Z,-5.54
2022-12-18T16:32:33.698Z,-5.54
2022-12-18T16:34:46.926Z,-5.56
2022-12-18T16:37:06.625Z,-5.60
2022-12-18T16:39:26.376Z,-5.64
2022-12-18T16:41:38.882Z,-5.64
2022-12-18T16:43:55.105Z,-5.64
2022-12-18T16:46:13.813Z,-5.62
2022-12-18T16:48:26.947Z,-5.62
2022-12-18T16:50:38.941Z,-5.63
2022-12-18T16:53:04.865Z,-5.65
2022-12-18T16:55:21.712Z,-5.70
2022-12-18T16:57:34.760Z,-5.73
2022-12-18T16:59:51.907Z,-5.76
2022-12-18T17:02:03.863Z,-5.79
2022-12-18T17:04:53.688Z,-5.80
2022-12-18T17:07:09.797Z,-5.83
2022-12-18T17:09:25.969Z,-5.85
2022-12-18T17:11:38.266Z,-5.87
2022-12-18T17:13:49.954Z,-5.89
2022-12-18T17:16:08.536Z,-5.90
2022-12-18T17:18:24.521Z,-5.92
2022-12-18T17:20:37.529Z,-5.91
2022-12-18T17:22:52.783Z,-5.89
2022-12-18T17:25:10.248Z,-5.86
2022-12-18T17:27:34.902Z,-5.83
2022-12-18T17:29:48.653Z,-5.81
2022-12-18T17:32:01.143Z,-5.79
2022-12-18T17:34:15.122Z,-5.81
2022-12-18T17:36:31.198Z,-5.81
2022-12-18T17:38:44.290Z,-5.81
2022-12-18T17:41:04.475Z,-5.80
2022-12-18T17:43:16.573Z,-5.86
2022-12-18T17:45:29.080Z,-5.92
2022-12-18T17:47:41.178Z,-5.97
2022-12-18T17:53:43.558Z,-6.06
2022-12-18T17:55:57.658Z,-6.08
2022-12-18T17:58:09.406Z,-6.08
2022-12-18T18:00:22.017Z,-6.07
2022-12-18T18:02:33.782Z,-6.06
2022-12-18T18:04:46.210Z,-6.04
2022-12-18T18:06:57.838Z,-6.06
2022-12-18T18:09:16.775Z,-6.07
2022-12-18T18:11:49.591Z,-6.06
2022-12-18T18:14:07.114Z,-6.05
2022-12-18T18:16:19.194Z,-6.03
2022-12-18T18:18:31.868Z,-6.03
2022-12-18T18:20:43.965Z,-6.05
2022-12-18T18:22:56.676Z,-6.07
2022-12-18T18:25:09.593Z,-6.08
2022-12-18T18:27:21.895Z,-6.07
2022-12-18T18:29:34.402Z,-6.06
2022-12-18T18:31:46.970Z,-6.06
2022-12-18T18:33:59.005Z,-6.09
2022-12-18T18:36:11.819Z,-6.11
2022-12-18T18:38:23.711Z,-6.16
2022-12-18T18:40:35.297Z,-6.18
2022-12-18T18:42:48.212Z,-6.20
2022-12-18T18:45:00.312Z,-6.19
2022-12-18T18:47:13.020Z,-6.19
2022-12-18T18:49:27.561Z,-6.20
2022-12-18T18:51:41.003Z,-6.23
2022-12-18T18:53:53.920Z,-6.26
2022-12-18T18:56:45.542Z,-6.28
2022-12-18T18:58:39.925Z,-6.32
2022-12-18T19:00:57.510Z,-6.34
2022-12-18T19:03:10.204Z,-6.34
2022-12-18T19:05:23.028Z,-6.33
2022-12-18T19:07:39.372Z,-6.32
2022-12-18T19:09:56.210Z,-6.31
2022-12-18T19:12:28.246Z,-6.32
2022-12-18T19:14:42.430Z,-6.34
2022-12-18T19:17:02.311Z,-6.37
2022-12-18T19:19:23.753Z,-6.40
2022-12-18T19:21:41.052Z,-6.41
2022-12-18T19:23:56.482Z,-6.42
2022-12-18T19:26:27.858Z,-6.41
2022-12-18T19:32:24.686Z,-6.44
2022-12-18T19:35:30.433Z,-6.44
2022-12-18T19:37:52.312Z,-6.44
2022-12-18T19:40:12.444Z,-6.43
2022-12-18T19:42:29.268Z,-6.43
2022-12-18T19:44:45.361Z,-6.43
2022-12-18T19:46:57.051Z,-6.42
2022-12-18T19:49:17.455Z,-6.42
2022-12-18T19:51:53.418Z,-6.41
2022-12-18T19:54:24.076Z,-6.41
2022-12-18T19:56:46.725Z,-6.44
2022-12-18T19:59:07.019Z,-6.46
2022-12-18T20:01:32.329Z,-6.46
2022-12-18T20:04:04.697Z,-6.48
2022-12-18T20:06:33.845Z,-6.50
2022-12-18T20:08:50.853Z,-6.52
2022-12-18T20:11:03.463Z,-6.53
2022-12-18T20:13:16.685Z,-6.54
2022-12-18T20:15:29.546Z,-6.54
2022-12-18T20:17:41.597Z,-6.54
2022-12-18T20:19:53.385Z,-6.55
2022-12-18T20:22:06.712Z,-6.55
2022-12-18T20:24:18.707Z,-6.56
2022-12-18T20:26:32.896Z,-6.56
2022-12-18T20:28:53.761Z,-6.57
2022-12-18T20:31:14.897Z,-6.57
2022-12-18T20:33:37.140Z,-6.56
2022-12-18T20:36:01.413Z,-6.55
2022-12-18T20:38:24.779Z,-6.55
2022-12-18T20:40:44.827Z,-6.55
2022-12-18T20:42:56.616Z,-6.56
2022-12-18T20:45:08.713Z,-6.57
2022-12-18T20:47:48.972Z,-6.56
2022-12-18T20:50:01.478Z,-6.57
2022-12-18T20:52:25.487Z,-6.57
2022-12-18T20:54:37.654Z,-6.56
2022-12-18T20:56:50.587Z,-6.55
2022-12-18T20:59:03.484Z,-6.53
2022-12-18T21:01:19.025Z,-6.51
2022-12-18T21:03:39.340Z,-6.51
2022-12-18T21:06:03.037Z,-6.50
2022-12-18T21:08:16.288Z,-6.50
2022-12-18T21:10:47.106Z,-6.49
2022-12-18T21:13:03.155Z,-6.49
2022-12-18T21:15:24.032Z,-6.48
2022-12-18T21:17:44.273Z,-6.48
2022-12-18T21:20:01.140Z,-6.48
2022-12-18T21:22:14.897Z,-6.49
2022-12-18T21:24:29.062Z,-6.49
2022-12-18T21:26:52.004Z,-6.50
2022-12-18T21:29:08.620Z,-6.52
2022-12-18T21:31:25.627Z,-6.53
2022-12-18T21:33:39.915Z,-6.55
2022-12-18T21:35:59.306Z,-6.57
2022-12-18T21:38:11.869Z,-6.59
2022-12-18T21:40:27.549Z,-6.61
2022-12-18T21:43:01.881Z,-6.63
2022-12-18T21:45:14.868Z,-6.64
2022-12-18T21:47:27.691Z,-6.65
2022-12-18T21:49:42.756Z,-6.66
2022-12-18T21:52:02.450Z,-6.66
2022-12-18T21:54:32.423Z,-6.68
2022-12-18T21:57:56.260Z,-6.70
2022-12-18T22:00:11.218Z,-6.71
2022-12-18T22:02:32.068Z,-6.70
2022-12-18T22:04:45.405Z,-6.71
2022-12-18T22:07:29.828Z,-6.72
2022-12-18T22:09:46.187Z,-6.73
2022-12-18T22:12:02.554Z,-6.73
2022-12-18T22:14:15.379Z,-6.73
2022-12-18T22:16:30.127Z,-6.74
2022-12-18T22:18:42.126Z,-6.74
2022-12-18T22:21:06.610Z,-6.74
2022-12-18T22:23:18.503Z,-6.74
2022-12-18T22:25:30.598Z,-6.74
2022-12-18T22:27:42.090Z,-6.74
2022-12-18T22:30:20.745Z,-6.75
2022-12-18T22:32:36.503Z,-6.76
2022-12-18T22:34:49.175Z,-6.76
2022-12-18T22:37:02.348Z,-6.75
2022-12-18T22:39:21.345Z,-6.75
2022-12-18T22:41:36.166Z,-6.76
2022-12-18T22:43:48.673Z,-6.76
2022-12-18T22:46:02.756Z,-6.76
2022-12-18T22:48:15.192Z,-6.76
2022-12-18T22:50:28.625Z,-6.75
2022-12-18T22:52:41.129Z,-6.75
2022-12-18T22:54:54.349Z,-6.76
2022-12-18T22:57:06.517Z,-6.75
2022-12-18T22:59:21.649Z,-6.75
2022-12-18T23:01:33.801Z,-6.75
2022-12-18T23:03:48.848Z,-6.74
2022-12-18T23:06:08.853Z,-6.74
2022-12-18T23:08:20.756Z,-6.75
2022-12-18T23:10:33.162Z,-6.76
2022-12-18T23:12:44.951Z,-6.75
2022-12-18T23:14:56.743Z,-6.74
2022-12-18T23:17:08.736Z,-6.75
2022-12-18T23:19:21.244Z,-6.75
2022-12-18T23:21:36.002Z,-6.75
2022-12-18T23:23:49.123Z,-6.75
2022-12-18T23:26:07.814Z,-6.77
2022-12-18T23:28:19.357Z,-6.77
2022-12-18T23:30:32.582Z,-6.79
2022-12-18T23:32:44.475Z,-6.79
2022-12-18T23:34:56.265Z,-6.79
2022-12-18T23:37:08.055Z,-6.79
2022-12-18T23:39:29.092Z,-6.79
2022-12-18T23:41:41.977Z,-6.79
2022-12-18T23:43:54.586Z,-6.79
2022-12-18T23:46:19.847Z,-6.80
2022-12-18T23:48:31.583Z,-6.79
2022-12-18T23:50:43.779Z,-6.79
2022-12-18T23:52:57.209Z,-6.80
2022-12-18T23:55:14.834Z,-6.81
2022-12-18T23:57:26.931Z,-6.81
2022-12-18T23:59:39.854Z,-6.81
